My Profile
  1. Member Settings
  2. My Devices
  3. Sign Out
        More Settings
      Elev 334 ft, 50.048 °N 17.735 °E

      Úvalno, CZ

      Summary

      Temperature (°F)MaxAverageMin
      Max Temperature9276.5259
      Avg Temperature77.9166.4958
      Min Temperature6654.944
      Precipitation (in)MaxAverageMinSum
      Precipitation0000
      Dew Point (°F)MaxAverageMin
      Dew Point66.8655.8647.33
      Wind (mph)MaxAverageMin
      Wind1811.742
      Gust Wind4029.8825
      Sea Level Pressure (in)MaxAverageMin
      Sea Level Pressure29.4729.329.1

      Daily Observations

      DateTemp High/LowDew Pt High/LowHumidityWindMax WindWind GustPressurePrecip.Condition
      6/1/2022 73 °F / 56 °F 56 °F / 49 °F 71 % 16 mph - 29.24 in 0 in
      6/2/2022 69 °F / 57 °F 56 °F / 49 °F 71 % 18 mph - 29.37 in 0 in
      6/3/2022 77 °F / 46 °F 54 °F / 45 °F 62 % 7 mph - 29.44 in 0 in
      6/4/2022 70 °F / 59 °F 63 °F / 48 °F 79 % 11 mph - 29.34 in 0 in
      6/5/2022 78 °F / 55 °F 61 °F / 48 °F 65 % 9 mph - 29.37 in 0 in
      6/6/2022 74 °F / 56 °F 61 °F / 47 °F 71 % 16 mph - 29.3 in 0 in
      6/7/2022 80 °F / 56 °F 61 °F / 51 °F 80 % 18 mph - 29.22 in 0 in
      6/8/2022 68 °F / 60 °F 63 °F / 59 °F 91 % 7 mph - 29.15 in 0 in
      6/9/2022 74 °F / 59 °F 65 °F / 58 °F 88 % 13 mph - 29.09 in 0 in
      6/10/2022 72 °F / 58 °F 61 °F / 55 °F 80 % 16 mph - 29.37 in 0 in
      6/11/2022 74 °F / 51 °F 57 °F / 50 °F 71 % 11 mph - 29.46 in 0 in
      6/12/2022 78 °F / 51 °F 61 °F / 50 °F 70 % 7 mph - 29.42 in 0 in
      6/13/2022 71 °F / 55 °F 62 °F / 53 °F 86 % 16 mph - 29.29 in 0 in
      6/14/2022 67 °F / 49 °F 51 °F / 45 °F 69 % 11 mph - 29.43 in 0 in
      6/15/2022 73 °F / 44 °F 55 °F / 43 °F 67 % 7 mph - 29.43 in 0 in
      6/16/2022 77 °F / 53 °F 60 °F / 50 °F 78 % 11 mph - 29.33 in 0 in
      6/17/2022 72 °F / 55 °F 58 °F / 49 °F 70 % 13 mph - 29.46 in 0 in
      6/18/2022 81 °F / 52 °F 60 °F / 49 °F 65 % 13 mph - 29.42 in 0 in
      6/19/2022 84 °F / 59 °F 58 °F / 53 °F 56 % 18 mph - 29.23 in 0 in
      6/20/2022 84 °F / 59 °F 67 °F / 54 °F 72 % 18 mph - 29.11 in 0 in
      6/21/2022 67 °F / 51 °F 55 °F / 46 °F 72 % 18 mph - 29.21 in 0 in
      6/22/2022 75 °F / 46 °F 55 °F / 44 °F 65 % 9 mph - 29.22 in 0 in
      6/23/2022 80 °F / 49 °F 56 °F / 47 °F 63 % 9 mph - 29.27 in 0 in
      6/24/2022 83 °F / 50 °F 56 °F / 49 °F 60 % 9 mph - 29.21 in 0 in
      6/25/2022 84 °F / 65 °F 63 °F / 54 °F 59 % 13 mph - 29.18 in 0 in
      6/26/2022 87 °F / 59 °F 64 °F / 55 °F 67 % 7 mph - 29.27 in 0 in
      6/27/2022 91 °F / 58 °F 65 °F / 55 °F 64 % 11 mph - 29.29 in 0 in
      6/28/2022 74 °F / 66 °F 67 °F / 62 °F 82 % 16 mph - 29.36 in 0 in
      6/29/2022 84 °F / 63 °F 70 °F / 63 °F 80 % 9 mph - 29.3 in 0 in
      6/30/2022 92 °F / 66 °F 71 °F / 61 °F 74 % 7 mph - 29.19 in 0 in
      essentialaccessibility.com
      We recognize our responsibility to use data and technology for good. We may use or share your data with our data vendors. Take control of your data.
      Glossary